San Clemente, CA (92672)

10:24 AM PDT on August 20, 2014 (GMT -0700)
North Ola Vista | Change Station
CLOSE
Current Station
Personal Weather Station
Location: San Clemente, CA
Elevation: 200 ft
Nearby Weather Stations

Elev 200 ft 33.43 °N, 117.62 °W | Updated 10 seconds ago

Overcast
Overcast
74.8 °F
Feels Like 77 °F
N
0.2
Wind Variable Wind from South
Gusts 2.5 mph

Today
High -- | Low -- °F
--% Chance of Precip.
Yesterday
High -- | Low -- °F
Precip. -- in
6:16 AM 7:30 PM
Waning Crescent, 20% visible
Pressure 29.94 in
Visibility 8.0 miles
Clouds Scattered Clouds 2300 ft
Overcast 10000 ft
Heat Index 77 °F
Dew Point 62 °F
Humidity 63%
Rainfall 0.00 in
Snow Depth Not available.
UV 2 out of 12
Pollen 5.00 out of 12
Ozone Good
Flu Activity Not available.
SPECI KNXF 201709Z AUTO 19005KT 8SM SCT023 OVC100 21/15 A2994 RMK AO2 T02110150 $

More Conditions Fewer Conditions

Pressure 29.94 in
Visibility 8.0 miles
Clouds Scattered Clouds 2300 ft
Overcast 10000 ft
Heat Index 77 °F
Dew Point 62 °F
Humidity 63%
Rainfall 0.00 in
Snow Depth Not available.
UV 2 out of 12
Pollen 5.00 out of 12
Ozone Good
Flu Activity Not available.
SPECI KNXF 201709Z AUTO 19005KT 8SM SCT023 OVC100 21/15 A2994 RMK AO2 T02110150 $

More Conditions Fewer Conditions

10-Day Weather Forecast

Almanac

Astronomy

Aug. 20, 2014 Rise Set
Actual Time 6:16 AM PDT 7:30 PM PDT
Civil Twilight 5:50 AM PDT 7:56 PM PDT
Nautical Twilight 5:19 AM PDT 8:27 PM PDT
Astronomical Twilight 4:47 AM PDT 8:59 PM PDT
Moon 2:05 AM PDT 4:14 PM PDT
Length of Visible Light 14h 06m
Length of Day
13h 14m
Tomorrow will be 1m 53s shorter.
Waning Crescent, 20% of the Moon is Illuminated
Today
Waning Crescent
Aug 25
New
Sep 2
First Quarter
Sep 8
Full
Sep 15
Last Quarter

Today's Extremes

State Highs State Lows

Community

WunderPhotos

Upload Photos

1,745,697 photos uploaded!

WunderBlogs® & News

By Dr. Jeff Masters
Director of Meteorology, Weather Underground
By Kari Strenfel
Meteorologist, Weather Underground
By Christopher C. Burt
Weather Historian, Weather Underground
August 20, 2014
August 20, 2014
August 20, 2014

Nearby

Air Quality

  Air Quality AQ Index Pollutant
Yesterday Good
OZONE
Current Good
OZONE
Wednesday Good
PM10
Wednesday Good
OZONE
Wednesday Good
CO
Wednesday Good
NO2

Snow Depth

Station Depth Elevation
Leavitt Lake 1 in 9400 ft
Leavitt Meadows 1 in 7200 ft
Summit Meadow 1 in 9122 ft
Ebbetts Pass 0 in 8700 ft
Monitor Pass 0 in 8350 ft

Earthquake Activity

City Distance Mag. Time & Date
Malibu Beach, California 72 miles 3.4 10:03 AM PDT
2014-08-15
Yucca Valley, California 90 miles 3.8 8:57 PM PDT
2014-08-14
Salton City, California 95 miles 2.6 6:58 AM PDT
2014-08-14
Ojai, California 115 miles 2.6 8:43 PM PDT
2014-08-13
Minimum magnitude displayed is 2.5.

Coastal Water Temperatures

Place Temperature
Santa Monica Pier 70.0 °F
Los Angeles, CA 66.9 °F
La Jolla, CA 63.0 °F

Nearby Weather Stations